Time;durP1;ratioP1;P1;durP2;ratioP2;P2;SDS_P1;SDS_P2;PMS_P1;PMS_P2;Temp;Humidity;BMP_temperature;BMP_pressure;BME280_temperature;BME280_humidity;BME280_pressure;Samples;Min_cycle;Max_cycle;Signal;HPM_P1;HPM_P2
2022/04/07 00:00:21;;;;;;;5.15;3.67;;;;;;;11.97;50.19;98915.13;5053388;28;20084;-48
2022/04/07 00:02:47;;;;;;;5.93;3.78;;;;;;;11.90;51.09;98915.25;5053466;28;20021;-51
2022/04/07 00:05:13;;;;;;;5.03;3.58;;;;;;;12.03;50.41;98914.19;5052936;28;20040;-48
2022/04/07 00:07:38;;;;;;;6.53;3.70;;;;;;;12.35;49.38;98906.59;5053148;28;20049;-48
2022/04/07 00:10:05;;;;;;;5.53;4.05;;;;;;;12.19;49.56;98902.81;5053026;28;20048;-48
2022/04/07 00:12:32;;;;;;;5.55;3.78;;;;;;;11.39;51.05;98893.50;5053018;28;20027;-48
2022/04/07 00:14:59;;;;;;;5.60;3.78;;;;;;;11.95;49.58;98885.22;5052692;28;20025;-49
2022/04/07 00:17:25;;;;;;;5.43;3.70;;;;;;;12.02;49.50;98883.25;5052549;28;20468;-48
2022/04/07 00:19:51;;;;;;;6.18;4.10;;;;;;;12.15;49.36;98888.31;5052993;28;20067;-49
2022/04/07 00:22:17;;;;;;;6.28;4.40;;;;;;;12.09;48.64;98878.59;5052993;28;20044;-50
2022/04/07 00:24:43;;;;;;;6.00;4.18;;;;;;;12.09;49.15;98876.72;5053184;28;20103;-49
2022/04/07 00:27:09;;;;;;;5.45;4.15;;;;;;;11.91;49.68;98890.19;5052796;28;20483;-51
2022/04/07 00:29:34;;;;;;;6.32;4.38;;;;;;;12.02;49.46;98896.56;5052893;28;20070;-49
2022/04/07 00:32:03;;;;;;;5.60;4.18;;;;;;;12.40;48.33;98901.38;5052593;28;20092;-48
2022/04/07 00:34:29;;;;;;;6.05;4.60;;;;;;;12.59;47.83;98911.88;5052795;28;20017;-48
2022/04/07 00:36:55;;;;;;;5.03;3.90;;;;;;;12.94;46.72;98913.63;5052435;28;20031;-47
2022/04/07 00:39:21;;;;;;;6.50;4.50;;;;;;;12.79;47.15;98895.44;5052792;28;20021;-47
2022/04/07 00:41:46;;;;;;;6.28;4.47;;;;;;;12.45;48.15;98884.63;5053427;28;20491;-48
2022/04/07 00:44:12;;;;;;;6.35;4.40;;;;;;;12.81;46.84;98874.66;5053105;28;20536;-47
2022/04/07 00:46:38;;;;;;;8.23;4.72;;;;;;;12.35;47.79;98871.91;5053082;28;20025;-47
2022/04/07 00:49:05;;;;;;;7.75;4.80;;;;;;;12.12;48.62;98864.78;5052363;28;20056;-48
2022/04/07 00:51:32;;;;;;;8.73;4.53;;;;;;;11.89;49.02;98866.41;5053049;28;20036;-48
2022/04/07 00:53:58;;;;;;;8.15;4.93;;;;;;;11.95;48.68;98862.00;5052364;28;20025;-52
2022/04/07 00:56:25;;;;;;;6.88;5.10;;;;;;;12.09;49.13;98867.94;5053068;28;20020;-51
2022/04/07 00:58:50;;;;;;;7.72;4.75;;;;;;;12.42;47.60;98872.59;5052897;28;20492;-48
2022/04/07 01:01:18;;;;;;;7.82;4.70;;;;;;;12.56;47.73;98877.66;5053514;28;20028;-48
2022/04/07 01:03:43;;;;;;;10.93;4.90;;;;;;;12.24;47.98;98865.56;5052887;28;20451;-51
2022/04/07 01:06:09;;;;;;;7.40;4.60;;;;;;;11.96;48.47;98863.66;5052694;28;20041;-51
2022/04/07 01:08:34;;;;;;;11.85;5.20;;;;;;;12.28;48.71;98856.06;5052847;28;20064;-49
2022/04/07 01:11:00;;;;;;;7.65;5.07;;;;;;;12.49;48.03;98861.81;5053044;28;20103;-50
2022/04/07 01:13:43;;;;;;;9.15;5.07;;;;;;;12.30;48.57;98861.16;5052444;28;20474;-49
2022/04/07 01:16:08;;;;;;;10.05;5.25;;;;;;;12.65;47.12;98855.69;5053000;28;20443;-50
2022/04/07 01:18:33;;;;;;;8.10;4.97;;;;;;;12.46;47.22;98847.06;5052548;28;20476;-48
2022/04/07 01:20:59;;;;;;;6.75;5.18;;;;;;;12.46;47.38;98857.72;5052416;28;20021;-48
2022/04/07 01:23:29;;;;;;;8.27;4.72;;;;;;;12.11;48.08;98855.16;5052400;28;20037;-47
2022/04/07 01:25:55;;;;;;;8.38;5.10;;;;;;;12.23;48.31;98855.94;5052660;28;20116;-51
2022/04/07 01:28:21;;;;;;;6.63;5.15;;;;;;;12.36;47.69;98862.88;5052669;28;20100;-51
2022/04/07 01:30:46;;;;;;;12.57;5.70;;;;;;;11.88;48.63;98862.13;5052408;28;20048;-50
2022/04/07 01:33:12;;;;;;;10.63;4.95;;;;;;;12.00;49.26;98856.81;5052357;28;20033;-51
2022/04/07 01:35:38;;;;;;;9.07;5.30;;;;;;;12.12;48.74;98846.09;5052579;28;20028;-50
2022/04/07 01:38:03;;;;;;;7.72;5.47;;;;;;;11.82;49.51;98844.41;5052485;28;20067;-48
2022/04/07 01:40:33;;;;;;;7.18;5.25;;;;;;;12.12;48.92;98838.91;5052185;28;20032;-49
2022/04/07 01:43:01;;;;;;;6.53;4.78;;;;;;;11.92;48.24;98833.97;5052269;28;20020;-48
2022/04/07 01:45:27;;;;;;;7.30;5.15;;;;;;;12.07;48.54;98824.66;5051869;28;20028;-49
2022/04/07 01:47:54;;;;;;;7.55;5.40;;;;;;;11.68;49.96;98811.03;5050748;28;20086;-49
2022/04/07 01:50:21;;;;;;;7.72;5.63;;;;;;;11.45;49.92;98795.88;5051797;28;20523;-51
2022/04/07 01:52:47;;;;;;;9.88;5.90;;;;;;;11.49;50.31;98792.50;5051744;28;20076;-47
2022/04/07 01:55:15;;;;;;;7.45;5.68;;;;;;;11.20;51.07;98796.91;5051874;28;20086;-49
2022/04/07 01:57:43;;;;;;;8.15;5.57;;;;;;;11.18;50.88;98791.00;5052130;28;20063;-49
2022/04/07 02:00:09;;;;;;;8.30;5.88;;;;;;;11.51;50.18;98787.75;5051980;28;20178;-49
2022/04/07 02:02:34;;;;;;;9.48;6.05;;;;;;;11.67;49.49;98782.75;5051436;28;20020;-48
2022/04/07 02:05:08;;;;;;;10.88;6.35;;;;;;;11.39;50.89;98772.81;5050781;28;20055;-49
2022/04/07 02:07:34;;;;;;;9.30;5.88;;;;;;;11.60;49.78;98788.22;5051911;28;20060;-50
2022/04/07 02:09:59;;;;;;;10.10;6.40;;;;;;;11.54;50.05;98789.94;5052071;28;20033;-51
2022/04/07 02:12:27;;;;;;;9.63;6.10;;;;;;;11.47;50.07;98781.25;5051541;28;20029;-50
2022/04/07 02:14:53;;;;;;;7.88;6.18;;;;;;;11.34;50.07;98766.31;5051512;28;20029;-50
2022/04/07 02:17:20;;;;;;;9.43;5.85;;;;;;;11.34;50.91;98774.31;5051503;28;20024;-51
2022/04/07 02:19:50;;;;;;;10.70;6.55;;;;;;;10.84;52.48;98768.59;5051548;28;20488;-48
2022/04/07 02:22:17;;;;;;;12.63;6.50;;;;;;;10.81;52.66;98753.88;5051496;28;20027;-48
2022/04/07 02:24:43;;;;;;;11.13;6.80;;;;;;;10.48;53.24;98739.25;5051169;28;20028;-47
2022/04/07 02:27:08;;;;;;;8.95;6.32;;;;;;;10.66;52.72;98745.53;5051506;28;20024;-49
2022/04/07 02:29:34;;;;;;;10.18;6.43;;;;;;;10.67;53.29;98723.22;5051560;28;20424;-48
2022/04/07 02:32:00;;;;;;;9.02;6.72;;;;;;;10.79;53.01;98716.06;5051645;28;20091;-49
2022/04/07 02:34:26;;;;;;;12.18;6.65;;;;;;;10.84;52.60;98731.34;5050824;28;20029;-48
2022/04/07 02:36:51;;;;;;;10.75;6.32;;;;;;;11.13;52.17;98742.94;5051212;28;20025;-48
2022/04/07 02:39:17;;;;;;;10.27;6.22;;;;;;;11.53;50.86;98739.56;5050767;28;20109;-52
2022/04/07 02:41:42;;;;;;;11.20;6.78;;;;;;;11.55;50.91;98737.47;5051285;28;20142;-48
2022/04/07 02:44:07;;;;;;;9.35;6.88;;;;;;;11.43;50.70;98726.03;5050920;28;20488;-48
2022/04/07 02:46:33;;;;;;;8.57;6.43;;;;;;;11.49;50.90;98725.09;5050733;28;20021;-47
2022/04/07 02:48:58;;;;;;;9.70;6.70;;;;;;;11.50;50.35;98721.38;5051166;28;20024;-48
2022/04/07 02:51:24;;;;;;;10.45;7.18;;;;;;;11.25;51.10;98722.44;5050977;28;20457;-49
2022/04/07 02:53:51;;;;;;;12.02;6.65;;;;;;;11.10;52.07;98716.75;5051214;28;20108;-49
2022/04/07 02:56:17;;;;;;;8.88;6.15;;;;;;;11.15;51.24;98711.56;5050618;28;20091;-49
2022/04/07 02:58:42;;;;;;;10.23;6.45;;;;;;;11.16;52.01;98697.22;5051138;28;20032;-48
2022/04/07 03:01:14;;;;;;;9.40;6.60;;;;;;;11.10;52.07;98696.28;5050977;28;20472;-49
2022/04/07 03:03:40;;;;;;;10.68;6.55;;;;;;;11.18;51.97;98704.97;5050560;28;20028;-49
2022/04/07 03:06:05;;;;;;;8.43;6.50;;;;;;;11.48;51.54;98718.13;5050691;28;20033;-50
2022/04/07 03:08:32;;;;;;;9.75;6.50;;;;;;;11.64;50.88;98722.75;5050683;28;20132;-48
2022/04/07 03:10:58;;;;;;;8.13;6.22;;;;;;;11.77;50.18;98719.00;5051020;28;20521;-47
2022/04/07 03:13:24;;;;;;;11.10;6.45;;;;;;;11.67;50.64;98702.78;5050709;28;20133;-51
2022/04/07 03:15:49;;;;;;;12.75;6.57;;;;;;;11.61;50.08;98696.53;5051521;28;20024;-50
2022/04/07 03:18:15;;;;;;;12.45;6.40;;;;;;;11.77;50.50;98679.03;5054577;28;20025;-49
2022/04/07 03:20:40;;;;;;;14.77;6.90;;;;;;;11.47;50.92;98661.38;5054686;28;20044;-49
2022/04/07 03:23:06;;;;;;;10.02;6.43;;;;;;;11.08;51.87;98655.78;5055370;28;20032;-48
2022/04/07 03:25:31;;;;;;;29.30;17.52;;;;;;;11.13;51.81;98673.69;5054907;28;20589;-50
2022/04/07 03:27:57;;;;;;;14.75;8.68;;;;;;;10.83;52.72;98697.78;5054459;28;20086;-49
2022/04/07 03:30:22;;;;;;;11.57;6.70;;;;;;;11.03;52.10;98686.81;5054647;28;20029;-49
2022/04/07 03:32:48;;;;;;;9.32;6.40;;;;;;;11.10;52.36;98672.31;5055022;28;20036;-49
2022/04/07 03:35:13;;;;;;;10.75;6.93;;;;;;;10.78;52.69;98687.84;5054757;28;20524;-50
2022/04/07 03:37:39;;;;;;;11.00;6.80;;;;;;;10.75;53.38;98690.94;5054745;28;20067;-48
2022/04/07 03:40:05;;;;;;;10.13;6.30;;;;;;;10.86;52.85;98700.78;5054357;28;20099;-48
2022/04/07 03:42:32;;;;;;;11.48;6.88;;;;;;;10.86;53.24;98692.81;5054526;28;20077;-48
2022/04/07 03:44:57;;;;;;;12.05;7.28;;;;;;;10.86;53.24;98676.03;5054437;28;20031;-51
2022/04/07 03:47:22;;;;;;;12.57;7.07;;;;;;;10.30;54.31;98657.69;5054806;28;20032;-48
2022/04/07 03:49:48;;;;;;;12.73;7.13;;;;;;;10.63;54.18;98660.88;5053388;28;20033;-48
2022/04/07 03:52:15;;;;;;;10.80;7.07;;;;;;;11.06;52.95;98681.00;5053570;28;20029;-49
2022/04/07 03:54:41;;;;;;;9.90;7.10;;;;;;;11.05;52.30;98674.06;5053563;28;20052;-48
2022/04/07 03:57:06;;;;;;;11.38;7.53;;;;;;;10.90;53.08;98671.88;5053644;28;20476;-54
2022/04/07 03:59:37;;;;;;;13.05;7.95;;;;;;;10.50;53.68;98662.69;5053838;28;20072;-51
2022/04/07 04:02:06;;;;;;;13.90;7.78;;;;;;;10.74;53.25;98644.91;5054267;28;20063;-51
2022/04/07 04:04:32;;;;;;;10.13;7.50;;;;;;;10.68;53.82;98629.03;5054096;28;20435;-50
2022/04/07 04:06:57;;;;;;;12.10;7.47;;;;;;;10.71;53.25;98636.56;5053589;28;20056;-54
2022/04/07 04:09:23;;;;;;;14.65;7.50;;;;;;;10.67;53.33;98644.19;5053716;28;20405;-46
2022/04/07 04:11:48;;;;;;;14.02;8.05;;;;;;;11.04;52.07;98643.16;5053109;28;20033;-49
2022/04/07 04:14:14;;;;;;;14.48;7.70;;;;;;;11.11;51.77;98633.19;5053142;28;20032;-52
2022/04/07 04:16:41;;;;;;;10.30;7.70;;;;;;;10.89;52.89;98624.97;5053452;28;20036;-51
2022/04/07 04:19:07;;;;;;;12.10;7.95;;;;;;;11.00;52.80;98626.81;5053403;28;20036;-48
2022/04/07 04:21:32;;;;;;;13.02;8.00;;;;;;;11.00;52.50;98639.34;5052722;28;20029;-48
2022/04/07 04:23:57;;;;;;;12.30;7.90;;;;;;;10.89;52.85;98644.44;5052657;28;20028;-48
2022/04/07 04:26:23;;;;;;;12.57;7.60;;;;;;;11.17;51.81;98637.56;5052940;28;20021;-50
2022/04/07 04:28:48;;;;;;;11.07;7.97;;;;;;;11.22;52.03;98632.38;5051502;28;20060;-47
2022/04/07 04:31:14;;;;;;;15.00;8.32;;;;;;;11.43;51.63;98638.13;5051896;28;20021;-48
2022/04/07 04:33:39;;;;;;;19.08;8.65;;;;;;;11.43;50.99;98644.25;5051677;28;20405;-51
2022/04/07 04:36:05;;;;;;;21.38;11.45;;;;;;;11.31;65.85;98633.63;5051985;28;20127;-48
2022/04/07 04:38:30;;;;;;;14.30;7.85;;;;;;;11.42;52.12;98636.47;5052305;28;20055;-47
2022/04/07 04:40:55;;;;;;;11.57;8.15;;;;;;;11.89;55.58;98639.00;5052812;28;20032;-47
2022/04/07 04:43:21;;;;;;;12.82;7.75;;;;;;;11.93;51.12;98634.81;5052087;28;20528;-47
2022/04/07 04:45:47;;;;;;;18.20;11.15;;;;;;;11.40;59.59;98633.25;5052729;28;20389;-51
2022/04/07 04:48:12;;;;;;;13.57;8.48;;;;;;;12.10;52.07;98625.00;5050925;28;20159;-50
2022/04/07 04:50:38;;;;;;;10.82;7.80;;;;;;;12.15;50.35;98610.97;5052454;28;20126;-47
2022/04/07 04:53:03;;;;;;;10.70;7.57;;;;;;;11.77;51.11;98619.59;5051723;28;20071;-49
2022/04/07 04:55:29;;;;;;;13.27;8.10;;;;;;;11.86;50.03;98626.13;5052740;28;20035;-47
2022/04/07 04:57:54;;;;;;;15.73;8.23;;;;;;;11.89;49.93;98650.47;5051757;28;20402;-49
2022/04/07 05:00:20;;;;;;;13.65;8.07;;;;;;;12.25;49.43;98650.31;5051542;28;20032;-48
2022/04/07 05:02:45;;;;;;;18.83;8.05;;;;;;;12.01;49.68;98647.75;5051691;28;20025;-48
2022/04/07 05:05:12;;;;;;;12.23;8.40;;;;;;;11.76;50.01;98647.28;5051265;28;20048;-50
2022/04/07 05:07:38;;;;;;;21.17;9.52;;;;;;;11.50;51.33;98636.13;5051252;28;20068;-51
2022/04/07 05:10:04;;;;;;;14.18;8.32;;;;;;;11.67;50.71;98615.69;5051538;28;20024;-48
2022/04/07 05:12:30;;;;;;;14.70;8.55;;;;;;;11.97;50.57;98606.63;5051026;28;20025;-51
2022/04/07 05:14:55;;;;;;;13.50;8.30;;;;;;;11.69;50.76;98618.91;5050492;28;20025;-51
2022/04/07 05:17:21;;;;;;;15.40;8.55;;;;;;;11.79;50.62;98638.81;5050960;28;20025;-54
2022/04/07 05:19:47;;;;;;;14.32;8.95;;;;;;;11.79;50.78;98636.16;5051449;28;20025;-52
2022/04/07 05:22:12;;;;;;;13.40;8.70;;;;;;;11.90;51.06;98630.78;5039505;28;20030;-53
2022/04/07 05:24:38;;;;;;;15.27;8.60;;;;;;;11.95;50.19;98608.72;5042082;28;20389;-50
2022/04/07 05:27:04;;;;;;;13.38;8.77;;;;;;;12.00;50.20;98613.38;5051975;28;20044;-53
2022/04/07 05:29:29;;;;;;;12.60;9.20;;;;;;;12.21;49.64;98622.53;5052063;28;20035;-52
2022/04/07 05:31:54;;;;;;;16.50;8.68;;;;;;;12.31;49.52;98612.81;5051726;28;20142;-54
2022/04/07 05:34:20;;;;;;;18.95;9.05;;;;;;;12.52;48.62;98591.78;5050470;28;20033;-49
2022/04/07 05:36:45;;;;;;;15.85;9.75;;;;;;;12.51;48.16;98574.97;5048666;28;20055;-54
2022/04/07 05:39:13;;;;;;;16.55;8.70;;;;;;;12.67;48.18;98589.34;5048920;28;20039;-49
2022/04/07 05:41:39;;;;;;;14.27;8.65;;;;;;;12.60;48.19;98596.69;5049310;28;20033;-52
2022/04/07 05:44:04;;;;;;;13.13;8.95;;;;;;;12.55;47.80;98577.16;5048653;28;20493;-50
2022/04/07 05:46:30;;;;;;;14.95;8.98;;;;;;;12.46;48.13;98577.56;5048656;28;20158;-49
2022/04/07 05:48:55;;;;;;;14.68;8.73;;;;;;;11.70;50.07;98583.22;5049062;28;20144;-52
2022/04/07 05:51:21;;;;;;;13.15;8.82;;;;;;;12.23;48.73;98583.06;5048410;28;20025;-49
2022/04/07 05:53:46;;;;;;;14.23;9.25;;;;;;;12.20;49.77;98567.53;5048826;28;20138;-48
2022/04/07 05:56:12;;;;;;;15.75;9.82;;;;;;;12.41;49.91;98547.31;5049281;28;20029;-49
2022/04/07 05:58:37;;;;;;;16.40;9.38;;;;;;;12.36;49.17;98533.94;5050175;28;20500;-47
2022/04/07 06:01:03;;;;;;;14.75;8.65;;;;;;;12.64;47.83;98533.81;5050688;28;20411;-48
2022/04/07 06:03:28;;;;;;;16.25;9.20;;;;;;;12.99;46.88;98540.66;5050034;28;20510;-51
2022/04/07 06:05:53;;;;;;;12.65;8.57;;;;;;;13.15;46.84;98533.63;5049581;28;20028;-50
2022/04/07 06:08:19;;;;;;;15.88;9.10;;;;;;;13.28;46.25;98535.09;5049540;28;20479;-49
2022/04/07 06:10:45;;;;;;;19.13;9.23;;;;;;;13.51;46.19;98544.72;5049869;28;20435;-50
2022/04/07 06:13:11;;;;;;;19.15;9.82;;;;;;;13.52;46.23;98557.03;5049682;28;20025;-50
2022/04/07 06:15:39;;;;;;;16.88;9.52;;;;;;;13.48;45.89;98545.25;5049329;28;20056;-49
2022/04/07 06:18:05;;;;;;;15.48;9.88;;;;;;;13.38;45.30;98542.44;5048980;28;20056;-49
2022/04/07 06:20:31;;;;;;;16.17;9.40;;;;;;;13.23;45.74;98533.19;5050139;28;20029;-49
2022/04/07 06:22:57;;;;;;;20.70;9.20;;;;;;;12.52;47.34;98528.53;5050337;28;20025;-50
2022/04/07 06:25:22;;;;;;;16.48;9.48;;;;;;;12.64;47.74;98515.13;5050038;28;20093;-49
2022/04/07 06:27:48;;;;;;;14.52;9.70;;;;;;;12.61;48.07;98520.13;5050030;28;20091;-50
2022/04/07 06:30:16;;;;;;;14.68;9.35;;;;;;;12.08;49.04;98523.09;5049819;28;20167;-51
2022/04/07 06:32:43;;;;;;;17.55;9.75;;;;;;;12.46;48.15;98516.19;5049915;28;20051;-50
2022/04/07 06:35:11;;;;;;;16.25;9.85;;;;;;;12.62;47.31;98519.06;5049871;28;20029;-47
2022/04/07 06:37:54;;;;;;;16.25;9.57;;;;;;;12.95;47.33;98517.38;5049916;28;20102;-50
2022/04/07 06:40:21;;;;;;;16.58;9.57;;;;;;;13.35;46.52;98501.03;5049272;28;20139;-50
2022/04/07 06:42:51;;;;;;;16.52;9.52;;;;;;;13.43;46.34;98499.75;5049650;28;20025;-49
2022/04/07 06:45:17;;;;;;;13.18;9.00;;;;;;;12.95;47.24;98504.03;5049230;28;20032;-52
2022/04/07 06:47:43;;;;;;;17.83;9.73;;;;;;;13.27;47.09;98504.91;5049251;28;20040;-51
2022/04/07 06:50:14;;;;;;;15.30;9.10;;;;;;;13.33;47.24;98502.31;5049318;28;20031;-49
2022/04/07 06:52:41;;;;;;;17.08;9.48;;;;;;;13.15;47.23;98485.53;5049300;28;20029;-37
2022/04/07 06:55:08;;;;;;;15.35;9.57;;;;;;;13.52;46.90;98484.06;5049599;28;20100;-37
2022/04/07 06:58:00;;;;;;;16.55;9.38;;;;;;;13.86;46.12;98465.94;5050413;28;20055;-38
2022/04/07 07:00:29;;;;;;;14.77;9.23;;;;;;;13.54;46.56;98482.75;5049106;28;20017;-38
2022/04/07 07:02:56;;;;;;;20.05;9.85;;;;;;;14.05;46.04;98477.84;5049190;28;20017;-38
2022/04/07 07:05:26;;;;;;;15.57;9.00;;;;;;;14.72;43.55;98474.78;5049186;28;20037;-37
2022/04/07 07:07:52;;;;;;;13.25;8.77;;;;;;;14.92;43.28;98466.78;5048981;28;20055;-38
2022/04/07 07:10:20;;;;;;;13.80;9.18;;;;;;;15.93;41.31;98458.38;5049054;28;20038;-50
2022/04/07 07:12:47;;;;;;;14.60;8.93;;;;;;;15.55;40.55;98457.81;5048737;28;20035;-49
2022/04/07 07:15:12;;;;;;;12.63;8.63;;;;;;;15.27;41.81;98448.38;5049476;28;20489;-51
2022/04/07 07:17:39;;;;;;;13.90;9.13;;;;;;;15.93;41.25;98442.28;5049113;28;20017;-50
2022/04/07 07:20:06;;;;;;;12.40;9.10;;;;;;;15.95;40.28;98440.94;5049297;28;20024;-52
2022/04/07 07:22:31;;;;;;;12.50;8.82;;;;;;;16.06;40.07;98455.16;5049189;28;20045;-50
2022/04/07 07:24:58;;;;;;;14.70;9.10;;;;;;;15.04;41.80;98440.59;5049022;28;20083;-49
2022/04/07 07:27:23;;;;;;;12.38;9.10;;;;;;;15.01;41.34;98443.00;5048016;28;20393;-49
2022/04/07 07:29:49;;;;;;;14.98;9.73;;;;;;;14.86;41.59;98443.75;5049147;28;20048;-50
2022/04/07 07:32:14;;;;;;;14.30;8.93;;;;;;;15.48;41.61;98433.13;5048970;28;20473;-50
2022/04/07 07:34:40;;;;;;;15.57;9.10;;;;;;;15.39;40.98;98441.72;5048915;28;20016;-53
2022/04/07 07:37:06;;;;;;;14.77;8.93;;;;;;;14.99;42.05;98429.84;5048889;28;20024;-50
2022/04/07 07:39:31;;;;;;;14.55;9.30;;;;;;;15.42;41.85;98414.38;5048971;28;20487;-51
2022/04/07 07:41:57;;;;;;;13.77;9.02;;;;;;;16.03;39.86;98418.94;5049087;28;20272;-49
2022/04/07 07:44:22;;;;;;;14.88;9.18;;;;;;;16.46;39.58;98397.06;5048336;28;20028;-48
2022/04/07 07:46:48;;;;;;;14.10;8.85;;;;;;;16.94;38.34;98405.44;5048663;28;20044;-50
2022/04/07 07:49:13;;;;;;;16.38;9.30;;;;;;;17.15;38.15;98408.03;5049219;28;20048;-51
2022/04/07 07:51:39;;;;;;;19.80;9.40;;;;;;;17.30;38.19;98413.28;5050198;28;20028;-38
2022/04/07 07:54:04;;;;;;;13.18;8.10;;;;;;;17.61;37.32;98412.25;5049518;28;20021;-38
2022/04/07 07:56:30;;;;;;;13.77;8.50;;;;;;;17.92;36.41;98408.25;5048008;28;20028;-38
2022/04/07 07:58:56;;;;;;;16.35;8.65;;;;;;;18.66;35.66;98407.16;5049218;28;20386;-37
2022/04/07 08:01:21;;;;;;;11.88;8.38;;;;;;;18.03;35.46;98408.94;5049300;28;20137;-38
2022/04/07 08:03:47;;;;;;;14.07;8.80;;;;;;;18.23;35.60;98407.91;5051108;28;20028;-37
2022/04/07 08:06:13;;;;;;;13.95;9.00;;;;;;;18.98;34.59;98398.38;5053154;28;20020;-38
2022/04/07 08:08:39;;;;;;;12.85;9.18;;;;;;;18.85;34.57;98401.81;5052945;28;20088;-51
2022/04/07 08:11:04;;;;;;;11.90;8.70;;;;;;;18.75;34.75;98400.03;5053422;28;20024;-53
2022/04/07 08:13:30;;;;;;;13.95;9.20;;;;;;;17.92;35.70;98386.72;5052761;28;20025;-50
2022/04/07 08:15:55;;;;;;;12.38;8.90;;;;;;;17.57;37.36;98372.50;5052712;28;20052;-52
2022/04/07 08:18:21;;;;;;;13.07;9.13;;;;;;;17.85;37.45;98383.53;5053610;28;20056;-49
2022/04/07 08:20:46;;;;;;;14.38;9.00;;;;;;;17.99;36.77;98378.28;5053406;28;20381;-51
2022/04/07 08:23:12;;;;;;;12.20;9.10;;;;;;;18.76;35.04;98380.88;5052682;28;20029;-50
2022/04/07 08:25:38;;;;;;;14.93;9.57;;;;;;;18.92;34.56;98378.00;5052619;28;20029;-50
2022/04/07 08:28:04;;;;;;;12.57;8.80;;;;;;;19.18;34.66;98385.72;5052803;28;20036;-52
2022/04/07 08:30:34;;;;;;;11.98;9.20;;;;;;;19.21;34.38;98382.44;5052902;28;20059;-51
2022/04/07 08:33:08;;;;;;;14.25;9.32;;;;;;;18.54;35.84;98372.53;5052755;28;20063;-52
2022/04/07 08:35:34;;;;;;;12.95;8.25;;;;;;;19.22;35.11;98360.56;5052827;28;20369;-51
2022/04/07 08:37:59;;;;;;;13.80;8.75;;;;;;;19.48;34.59;98363.66;5052523;28;20033;-50
2022/04/07 08:40:25;;;;;;;15.52;9.10;;;;;;;20.11;32.73;98354.19;5053145;28;20469;-48
2022/04/07 08:42:50;;;;;;;14.05;8.48;;;;;;;20.21;33.00;98341.59;5052992;28;20520;-50
2022/04/07 08:45:16;;;;;;;18.20;9.00;;;;;;;20.08;32.57;98343.19;5053185;28;20070;-49
2022/04/07 08:47:44;;;;;;;18.65;9.57;;;;;;;19.99;32.68;98335.00;5052513;28;20539;-50
2022/04/07 08:50:13;;;;;;;12.10;8.68;;;;;;;19.96;32.97;98327.47;5052942;28;20128;-50
2022/04/07 08:52:39;;;;;;;13.75;8.65;;;;;;;20.30;32.24;98318.97;5052494;28;20074;-51
2022/04/07 08:55:06;;;;;;;13.25;8.85;;;;;;;20.21;32.33;98293.75;5052621;28;20033;-50
2022/04/07 08:57:33;;;;;;;13.63;8.88;;;;;;;20.27;32.45;98291.75;5052297;28;20036;-51
2022/04/07 08:59:58;;;;;;;13.07;9.45;;;;;;;19.63;33.19;98278.97;5052220;28;20386;-51
2022/04/07 09:02:24;;;;;;;12.65;9.07;;;;;;;19.39;34.00;98267.53;5052435;28;20556;-50
2022/04/07 09:04:57;;;;;;;13.20;8.70;;;;;;;19.91;33.46;98257.38;5051874;28;20033;-50
2022/04/07 09:07:32;;;;;;;12.80;8.75;;;;;;;20.15;32.66;98237.47;5051816;28;20063;-50
2022/04/07 09:10:00;;;;;;;13.82;8.95;;;;;;;20.43;32.20;98238.22;5051980;28;20029;-51
2022/04/07 09:12:25;;;;;;;16.48;9.55;;;;;;;20.53;31.95;98229.88;5051948;28;20025;-51
2022/04/07 09:14:58;;;;;;;14.05;8.77;;;;;;;20.11;32.73;98235.38;5051427;28;20067;-51
2022/04/07 09:17:24;;;;;;;12.07;8.57;;;;;;;20.18;32.74;98232.28;5051783;28;20025;-51
2022/04/07 09:19:50;;;;;;;12.30;8.55;;;;;;;20.07;32.55;98223.59;5051382;28;20033;-50
2022/04/07 09:22:16;;;;;;;16.13;8.93;;;;;;;20.02;32.99;98220.19;5052089;28;20168;-49
2022/04/07 09:24:42;;;;;;;13.70;9.00;;;;;;;20.30;32.33;98216.31;5051878;28;20424;-49
2022/04/07 09:27:12;;;;;;;15.05;9.70;;;;;;;19.75;32.87;98200.22;5051539;28;20029;-49
2022/04/07 09:29:43;;;;;;;17.05;10.13;;;;;;;19.31;34.11;98199.69;5051763;28;20473;-49
2022/04/07 09:32:22;;;;;;;12.55;9.43;;;;;;;18.58;35.42;98200.38;5051183;28;20025;-48
2022/04/07 09:35:01;;;;;;;15.70;9.80;;;;;;;18.68;35.02;98195.63;5051520;28;20086;-50
2022/04/07 09:37:29;;;;;;;19.30;10.30;;;;;;;18.56;35.57;98189.88;5051481;28;20408;-47
2022/04/07 09:40:07;;;;;;;14.80;9.73;;;;;;;18.62;35.62;98187.91;5051670;28;20400;-49
2022/04/07 09:42:34;;;;;;;14.95;9.77;;;;;;;18.90;35.35;98210.38;5051189;28;20037;-50
2022/04/07 09:45:01;;;;;;;16.15;9.35;;;;;;;19.04;35.30;98224.72;5051210;28;20025;-48
2022/04/07 09:47:35;;;;;;;15.95;9.30;;;;;;;19.30;35.33;98219.66;5049793;28;20633;-50
2022/04/07 09:50:02;;;;;;;18.63;9.48;;;;;;;19.46;34.59;98230.19;5050408;28;20117;-49
2022/04/07 09:52:27;;;;;;;16.70;10.25;;;;;;;19.49;34.80;98243.06;5050954;28;20481;-50
2022/04/07 09:55:00;;;;;;;18.70;9.93;;;;;;;19.50;34.50;98229.28;5050966;28;20127;-51
2022/04/07 09:57:27;;;;;;;27.48;14.93;;;;;;;19.31;34.61;98228.56;5051112;28;20025;-52
2022/04/07 09:59:54;;;;;;;22.88;13.55;;;;;;;19.17;35.03;98209.66;5051123;28;20446;-49
2022/04/07 10:02:20;;;;;;;20.83;11.32;;;;;;;19.01;35.46;98200.25;5050700;28;20052;-51
2022/04/07 10:04:46;;;;;;;14.73;10.10;;;;;;;19.19;35.22;98190.47;5051014;28;20397;-50
2022/04/07 10:07:13;;;;;;;16.45;9.73;;;;;;;19.29;35.03;98182.22;5050897;28;20079;-51
2022/04/07 10:09:41;;;;;;;18.70;9.77;;;;;;;19.48;34.44;98184.81;5050758;28;20025;-50
2022/04/07 10:12:11;;;;;;;17.10;9.80;;;;;;;19.30;34.68;98168.41;5050652;28;20033;-51
2022/04/07 10:14:37;;;;;;;19.52;9.57;;;;;;;19.30;34.37;98163.03;5050164;28;20411;-51
2022/04/07 10:17:03;;;;;;;18.95;9.70;;;;;;;19.62;33.64;98153.22;5050713;28;20419;-48
2022/04/07 10:20:01;;;;;;;12.82;8.82;;;;;;;19.74;33.88;98136.56;5050988;28;20029;-49
2022/04/07 10:22:45;;;;;;;13.57;9.43;;;;;;;19.73;33.67;98126.88;5051054;28;20025;-51
2022/04/07 10:25:13;;;;;;;14.43;9.15;;;;;;;19.60;33.68;98123.06;5050116;28;20055;-50
2022/04/07 10:27:48;;;;;;;15.07;9.45;;;;;;;19.67;33.71;98122.66;5050195;28;20036;-48
2022/04/07 10:30:15;;;;;;;23.10;10.35;;;;;;;19.07;34.38;98102.78;5050271;28;20044;-52
2022/04/07 10:32:43;;;;;;;19.10;10.23;;;;;;;19.14;34.26;98095.13;5050004;28;20178;-50
2022/04/07 10:35:10;;;;;;;17.73;10.07;;;;;;;19.10;34.16;98096.81;5049948;28;20032;-50
2022/04/07 10:37:47;;;;;;;15.90;10.38;;;;;;;19.27;34.32;98103.53;5050548;28;20029;-49
2022/04/07 10:40:31;;;;;;;17.73;10.25;;;;;;;19.78;33.73;98105.19;5050704;28;20056;-50
2022/04/07 10:43:18;;;;;;;17.38;9.77;;;;;;;20.28;33.14;98099.69;5050153;28;20020;-48
2022/04/07 10:45:47;;;;;;;13.48;8.45;;;;;;;20.56;32.23;98109.56;5049992;28;20021;-49
2022/04/07 10:48:59;;;;;;;13.83;9.40;;;;;;;20.72;32.17;98118.13;5050425;28;20069;-51
2022/04/07 10:51:51;;;;;;;17.98;9.68;;;;;;;20.42;32.42;98128.53;5008122;28;20352;-48
2022/04/07 10:54:17;;;;;;;14.98;9.68;;;;;;;20.57;32.28;98147.09;5008080;28;20084;-49
2022/04/07 10:56:46;;;;;;;13.27;9.30;;;;;;;20.11;32.85;98143.56;5036965;28;20472;-50
2022/04/07 10:59:19;;;;;;;14.75;9.45;;;;;;;19.54;33.60;98145.84;5050113;28;20046;-50
2022/04/07 11:01:53;;;;;;;18.35;8.80;;;;;;;19.42;34.07;98149.06;5050229;28;20037;-49
2022/04/07 11:04:18;;;;;;;14.18;8.90;;;;;;;19.47;34.28;98132.75;5050289;28;20489;-48
2022/04/07 11:07:09;;;;;;;17.27;8.35;;;;;;;19.59;34.02;98121.47;5049957;28;20051;-48
2022/04/07 11:10:00;;;;;;;23.85;11.65;;;;;;;20.07;33.63;98101.28;5050294;28;20049;-51
2022/04/07 11:12:29;;;;;;;;;;;;;;;20.25;33.15;98096.81;5050908;28;20041;-51
2022/04/07 11:15:01;;;;;;;13.02;7.95;;;;;;;20.65;32.57;98099.63;5050429;28;19909;-50
2022/04/07 11:17:34;;;;;;;11.50;7.63;;;;;;;20.56;32.89;98091.47;5050103;28;20028;-50
2022/04/07 11:20:03;;;;;;;11.13;7.30;;;;;;;20.78;32.75;98104.16;5050468;28;20382;-49
2022/04/07 11:22:48;;;;;;;12.52;8.02;;;;;;;20.98;31.89;98104.72;5050533;28;20064;-48
2022/04/07 11:25:34;;;;;;;12.35;6.97;;;;;;;20.98;31.43;98085.78;5050307;28;20102;-49
2022/04/07 11:28:19;;;;;;;9.25;7.07;;;;;;;20.89;31.36;98091.19;5049476;28;20483;-49